Tropical Cyclones
[Index]
Main Index Home Page Stock Weather Photos Extreme Storms Discussion Storm News and Storm Chasing Reports Tropical Cyclones / Hurricanes / Typhoons Weather Data and Links Wild Fires / Bushfires Weather Observation Techniques Weather Picture Catalogue Tornado Pictures and Reports Stock Video Footage and DVDs for sale
Season 2007-2008 Tropical Cyclone HYBRID-LOW-01 Track Map
Season 2007-2008 Summaries (Operational Data): [AU] [SIO] [SPAC] [SH]
<<- Previous TC | 2007-2008 Season | Next TC ->>

click for intensity scale information  Lat/long Grid: Show Hide

 Date Labels: Show Hide

Operational Tropical Cyclone Data

Name: HYBRID-LOW-01
Number: 08PB

27 Dec 2007 00:00 UTC to 04 Jan 2008 04:00 UTC

    date/time    lat    long     hPa   cat  kts
2007-12-27 00   21.0   154.0                 30          
2007-12-27 06   21.0   154.0                 30          
2007-12-27 12   19.0   152.0                 30          
2007-12-27 18   20.0   151.0    1002    1    40          
2007-12-28 00   20.0   152.0    1000    1    40          
2007-12-28 06   21.0   155.0    1000    1    40          
2007-12-28 12   22.5   156.0    1000    2    50          
2007-12-28 18   23.5   157.0     998    2    50          
2007-12-29 00   23.9   157.3     996    2    50          
2007-12-29 06   23.7   157.6     995    2    50          
2007-12-29 12   24.0   158.0     996    2    50          
2007-12-29 18   24.0   158.0     995    2    50          
2007-12-30 00   24.4   157.7     995    2    50          
2007-12-30 06   24.6   157.9     995    2    50          
2007-12-30 12   24.3   157.3     995    2    50          
2007-12-30 18   23.6   156.6     995    1    40          
2007-12-31 00   23.0   156.5     997    1    40          
2007-12-31 06   23.0   156.5     995    1    40          
2007-12-31 12   23.0   156.7     996    1    40          
2007-12-31 18   22.4   156.2     996    1    40          
2008-01-01 00   22.4   156.2     996    1    40          
2008-01-01 06   22.0   156.0     995    1    40          
2008-01-01 12   21.2   156.0     996    1    40          
2008-01-01 18   21.5   156.5     996    1    40          
2008-01-02 00   20.3   155.5     995    1    40          
2008-01-02 06   25.0   163.0     996    1    40          
2008-01-02 12   25.0   161.0     996    1    40          
2008-01-02 18   26.5   160.0            1    40          
2008-01-03 00   27.0   159.0            1    40          
2008-01-03 06   27.0   158.5            1    45          
2008-01-03 12   26.5   156.5            1    40          
2008-01-03 18   27.0   156.0            1    40          
2008-01-04 00   27.0   155.7            1    40          
2008-01-04 04   26.1   155.4                 30          
Winds are 10-min average.

Tropical cyclone tracks developed by Michael Bath using operational warnings and advisories and Google Maps.


[Australian Severe Weather index] [Copyright Notice] [Email Contacts] [Search This Site] [Privacy Policy]
Document: tropical_cyclone_hybrid-low-01.htm Updated: 2 May 2017